Time;durP1;ratioP1;P1;durP2;ratioP2;P2;SDS_P1;SDS_P2;PMS_P1;PMS_P2;Temp;Humidity;BMP_temperature;BMP_pressure;BME280_temperature;BME280_humidity;BME280_pressure;Samples;Min_cycle;Max_cycle;Signal;HPM_P1;HPM_P2
2023/05/12 00:00:32;;;;;;;15.80;15.20;;;13.60;18.20;;;;;;4871386;29;20474;-82
2023/05/12 00:03:02;;;;;;;15.90;15.30;;;13.60;1.00;;;;;;4872127;29;20863;-82
2023/05/12 00:05:31;;;;;;;15.07;14.53;;;13.50;1.00;;;;;;4870112;29;20586;-83
2023/05/12 00:08:00;;;;;;;15.53;14.70;;;13.50;51.20;;;;;;4875470;29;20554;-82
2023/05/12 00:10:28;;;;;;;15.33;14.80;;;13.50;99.90;;;;;;4874472;29;20867;-83
2023/05/12 00:12:57;;;;;;;15.77;15.17;;;13.60;39.60;;;;;;4871231;29;20470;-83
2023/05/12 00:15:25;;;;;;;15.43;14.90;;;13.60;1.00;;;;;;4869749;29;20472;-83
2023/05/12 00:17:53;;;;;;;15.83;15.27;;;13.60;99.90;;;;;;4861081;29;20466;-83
2023/05/12 00:20:22;;;;;;;15.60;15.10;;;13.50;96.90;;;;;;4874468;29;20684;-82
2023/05/12 00:22:50;;;;;;;15.50;14.90;;;13.60;99.90;;;;;;4880576;29;21000;-83
2023/05/12 00:25:19;;;;;;;16.03;15.53;;;13.50;99.90;;;;;;4878569;29;20530;-83
2023/05/12 00:27:47;;;;;;;15.80;15.30;;;13.50;99.90;;;;;;4878436;29;20495;-83
2023/05/12 00:30:16;;;;;;;15.47;14.97;;;13.50;99.90;;;;;;4878185;29;21004;-83
2023/05/12 00:32:45;;;;;;;15.47;14.97;;;13.50;99.90;;;;;;4879704;29;20458;-82
2023/05/12 00:35:13;;;;;;;15.30;14.80;;;13.50;99.90;;;;;;4873663;29;20917;-83
2023/05/12 00:37:42;;;;;;;15.63;15.13;;;13.50;1.00;;;;;;4871647;29;20462;-82
2023/05/12 00:40:11;;;;;;;15.57;14.97;;;13.50;1.00;;;;;;4874284;29;20474;-82
2023/05/12 00:42:41;;;;;;;16.17;15.57;;;13.50;1.00;;;;;;4877149;29;20464;-82
2023/05/12 00:45:10;;;;;;;16.30;15.80;;;13.50;99.90;;;;;;4872489;29;20486;-81
2023/05/12 00:47:38;;;;;;;16.13;15.53;;;13.50;1.00;;;;;;4876355;29;20526;-83
2023/05/12 00:50:08;;;;;;;16.53;15.83;;;13.50;99.90;;;;;;4877444;29;20467;-83
2023/05/12 00:52:36;;;;;;;16.70;16.10;;;13.50;99.90;;;;;;4874941;29;21000;-83
2023/05/12 00:55:05;;;;;;;17.50;16.80;;;13.40;1.00;;;;;;4870337;29;20500;-83
2023/05/12 00:57:33;;;;;;;17.20;16.60;;;13.50;1.00;;;;;;4872534;29;20583;-83
2023/05/12 01:00:03;;;;;;;17.20;16.53;;;13.50;1.00;;;;;;4874399;29;20992;-84
2023/05/12 01:02:32;;;;;;;17.63;16.70;;;13.40;2.00;;;;;;4871200;29;20892;-83
2023/05/12 01:05:00;;;;;;;17.23;16.53;;;13.40;1.00;;;;;;4870088;29;20633;-83
2023/05/12 01:07:32;;;;;;;18.00;17.30;;;13.40;99.90;;;;;;4870593;29;20511;-82
2023/05/12 01:10:01;;;;;;;17.67;16.93;;;13.40;99.90;;;;;;4874727;29;20485;-81
2023/05/12 01:12:31;;;;;;;17.57;16.87;;;13.40;99.90;;;;;;4875781;29;20450;-82
2023/05/12 01:14:59;;;;;;;18.93;17.93;;;13.50;96.90;;;;;;4876445;29;21178;-82
2023/05/12 01:17:32;;;;;;;17.50;16.80;;;13.40;99.90;;;;;;4868668;29;20481;-83
2023/05/12 01:20:03;;;;;;;17.90;17.20;;;13.40;99.90;;;;;;4871562;29;20466;-82
2023/05/12 01:22:32;;;;;;;18.97;18.17;;;13.40;99.90;;;;;;4872436;29;20795;-83
2023/05/12 01:25:03;;;;;;;17.23;16.63;;;13.40;99.90;;;;;;4871477;29;20602;-82
2023/05/12 01:27:34;;;;;;;18.03;17.33;;;13.40;99.90;;;;;;4864644;29;20590;-82
2023/05/12 01:30:04;;;;;;;17.97;17.17;;;13.40;1.00;;;;;;4875777;29;20466;-83
2023/05/12 01:32:33;;;;;;;17.43;16.73;;;13.40;1.00;;;;;;4875906;29;20467;-83
2023/05/12 01:35:01;;;;;;;17.27;16.57;;;13.40;1.00;;;;;;4873778;29;20490;-82
2023/05/12 01:37:30;;;;;;;17.20;16.60;;;13.40;1.00;;;;;;4873380;29;20856;-83
2023/05/12 01:39:58;;;;;;;17.37;16.50;;;13.40;1.00;;;;;;4863850;29;20462;-84
2023/05/12 01:42:26;;;;;;;16.03;15.43;;;13.50;1.00;;;;;;4871121;29;20829;-82
2023/05/12 01:44:56;;;;;;;17.33;16.63;;;13.50;1.00;;;;;;4874501;29;20476;-83
2023/05/12 01:47:24;;;;;;;18.20;17.40;;;13.50;99.90;;;;;;4873930;29;20466;-83
2023/05/12 01:49:53;;;;;;;17.67;16.97;;;13.40;99.90;;;;;;4872071;29;20468;-81
2023/05/12 01:52:21;;;;;;;18.30;17.50;;;13.40;99.90;;;;;;4871904;29;20468;-84
2023/05/12 01:54:50;;;;;;;18.23;17.43;;;13.50;99.90;;;;;;4873356;29;20852;-83
2023/05/12 01:57:18;;;;;;;17.93;17.03;;;13.40;99.90;;;;;;4870202;29;21020;-83
2023/05/12 01:59:46;;;;;;;18.33;17.53;;;13.40;99.90;;;;;;4872666;29;20453;-83
2023/05/12 02:02:16;;;;;;;17.83;17.10;;;13.40;99.90;;;;;;4878200;29;20538;-83
2023/05/12 02:04:44;;;;;;;18.37;17.57;;;13.40;1.00;;;;;;4876604;29;20490;-81
2023/05/12 02:07:14;;;;;;;18.00;17.20;;;13.40;1.00;;;;;;4871486;29;20622;-82
2023/05/12 02:09:42;;;;;;;19.13;18.17;;;13.30;1.00;;;;;;4874970;29;20502;-82
2023/05/12 02:12:10;;;;;;;20.03;18.73;;;13.30;26.70;;;;;;4874758;29;20465;-84
2023/05/12 02:14:39;;;;;;;19.17;18.17;;;13.30;92.10;;;;;;4874376;29;20480;-83
2023/05/12 02:17:07;;;;;;;20.17;19.13;;;13.30;99.90;;;;;;4876858;29;20899;-84
2023/05/12 02:19:37;;;;;;;19.93;18.93;;;13.30;99.90;;;;;;4876893;29;20507;-82
2023/05/12 02:22:05;;;;;;;20.50;19.40;;;13.30;99.90;;;;;;4876107;29;20459;-85
2023/05/12 02:24:33;;;;;;;20.00;19.00;;;13.30;99.90;;;;;;4878138;29;20680;-83
2023/05/12 02:27:01;;;;;;;19.57;18.67;;;13.40;1.00;;;;;;4875422;29;20462;-83
2023/05/12 02:29:29;;;;;;;20.50;19.40;;;13.40;99.90;;;;;;4877628;29;20492;-83
2023/05/12 02:31:58;;;;;;;20.43;19.43;;;13.30;99.90;;;;;;4879143;29;20466;-83
2023/05/12 02:34:26;;;;;;;19.30;18.40;;;13.30;99.90;;;;;;4882336;29;20632;-83
2023/05/12 02:36:56;;;;;;;20.50;19.50;;;13.20;99.90;;;;;;4873961;29;20462;-82
2023/05/12 02:39:24;;;;;;;20.60;19.60;;;13.20;99.90;;;;;;4871864;29;20462;-82
2023/05/12 02:41:52;;;;;;;21.63;20.43;;;13.30;1.00;;;;;;4875708;29;20458;-82
2023/05/12 02:44:21;;;;;;;20.80;19.80;;;13.30;1.00;;;;;;4878087;29;21035;-82
2023/05/12 02:46:49;;;;;;;19.90;18.97;;;13.30;1.00;;;;;;4878790;29;20486;-83
2023/05/12 02:49:17;;;;;;;20.73;19.70;;;13.20;2.80;;;;;;4873600;29;20482;-83
2023/05/12 02:51:47;;;;;;;20.47;19.27;;;13.30;54.20;;;;;;4870710;29;20473;-83
2023/05/12 02:54:16;;;;;;;22.10;20.47;;;13.20;99.90;;;;;;4877187;29;20568;-84
2023/05/12 02:56:45;;;;;;;21.57;20.40;;;13.30;99.90;;;;;;4872975;29;20474;-82
2023/05/12 02:59:13;;;;;;;21.23;20.13;;;13.30;1.00;;;;;;4874001;29;20625;-82
2023/05/12 03:01:41;;;;;;;21.77;20.27;;;13.30;1.00;;;;;;4875868;29;20987;-82
2023/05/12 03:04:09;;;;;;;21.80;20.60;;;13.20;99.90;;;;;;4873405;29;20482;-82
2023/05/12 03:06:37;;;;;;;21.77;20.50;;;13.20;1.00;;;;;;4876868;29;20530;-83
2023/05/12 03:09:06;;;;;;;22.33;20.87;;;13.20;99.90;;;;;;4873675;29;21019;-82
2023/05/12 03:11:35;;;;;;;20.97;19.97;;;13.20;73.60;;;;;;4879963;29;20478;-82
2023/05/12 03:14:03;;;;;;;22.93;21.13;;;13.20;1.00;;;;;;4877500;29;21138;-82
2023/05/12 03:16:31;;;;;;;21.83;20.63;;;13.20;99.90;;;;;;4876155;29;20477;-81
2023/05/12 03:18:59;;;;;;;21.43;20.20;;;13.20;1.00;;;;;;4875672;29;20971;-80
2023/05/12 03:21:28;;;;;;;20.93;19.80;;;13.20;1.00;;;;;;4874723;29;20470;-81
2023/05/12 03:23:57;;;;;;;22.67;21.27;;;13.20;1.00;;;;;;4872191;29;20486;-82
2023/05/12 03:26:25;;;;;;;21.30;20.23;;;13.30;99.90;;;;;;4876299;29;21089;-82
2023/05/12 03:28:55;;;;;;;22.13;20.90;;;13.20;1.00;;;;;;4869020;29;20553;-82
2023/05/12 03:31:23;;;;;;;21.33;20.23;;;13.20;32.70;;;;;;4872333;29;21094;-82
2023/05/12 03:33:51;;;;;;;22.30;21.07;;;13.20;1.00;;;;;;4880014;29;20487;-81
2023/05/12 03:36:20;;;;;;;22.43;21.23;;;13.20;32.50;;;;;;4878754;29;20912;-82
2023/05/12 03:38:48;;;;;;;22.60;21.30;;;13.20;99.90;;;;;;4876754;29;20459;-82
2023/05/12 03:41:17;;;;;;;21.77;20.67;;;13.20;99.90;;;;;;4878614;29;20857;-82
2023/05/12 03:43:45;;;;;;;22.97;21.53;;;13.20;1.00;;;;;;4878819;29;20902;-83
2023/05/12 03:46:15;;;;;;;22.30;21.00;;;13.20;1.00;;;;;;4874588;29;20461;-82
2023/05/12 03:48:43;;;;;;;22.03;20.73;;;13.30;1.00;;;;;;4871281;29;20485;-82
2023/05/12 03:51:11;;;;;;;21.70;20.50;;;13.30;99.90;;;;;;4875285;29;20461;-82
2023/05/12 03:53:43;;;;;;;22.50;21.30;;;13.20;1.00;;;;;;4873618;29;20492;-80
2023/05/12 03:56:12;;;;;;;22.53;21.33;;;13.20;1.00;;;;;;4879729;29;20465;-82
2023/05/12 03:58:40;;;;;;;23.30;22.10;;;13.20;1.00;;;;;;4878000;29;20868;-83
2023/05/12 04:01:08;;;;;;;22.63;21.37;;;13.20;32.20;;;;;;4862221;29;21012;-83
2023/05/12 04:03:39;;;;;;;24.10;22.70;;;13.20;99.90;;;;;;4871795;29;20493;-82
2023/05/12 04:06:08;;;;;;;24.23;22.73;;;13.10;1.00;;;;;;4871693;29;20481;-83
2023/05/12 04:08:37;;;;;;;23.20;21.90;;;13.20;1.00;;;;;;4878052;29;20473;-83
2023/05/12 04:11:09;;;;;;;24.37;22.80;;;13.20;32.20;;;;;;4874794;29;20549;-83
2023/05/12 04:13:37;;;;;;;25.40;23.70;;;13.20;99.90;;;;;;4870145;29;20485;-84
2023/05/12 04:16:06;;;;;;;24.77;23.40;;;13.20;99.90;;;;;;4872319;29;20475;-82
2023/05/12 04:18:35;;;;;;;23.53;22.17;;;13.10;32.60;;;;;;4873027;29;21067;-83
2023/05/12 04:21:05;;;;;;;24.00;22.50;;;13.20;99.90;;;;;;4871061;29;20533;-81
2023/05/12 04:23:33;;;;;;;23.27;22.07;;;13.20;42.10;;;;;;4864363;29;20496;-82
2023/05/12 04:26:04;;;;;;;23.93;22.60;;;13.20;33.30;;;;;;4867576;29;20906;-83
2023/05/12 04:28:32;;;;;;;24.20;22.80;;;13.20;31.00;;;;;;4870693;29;21071;-83
2023/05/12 04:31:03;;;;;;;24.93;23.43;;;13.20;33.40;;;;;;4868854;29;20615;-82
2023/05/12 04:33:31;;;;;;;23.83;22.33;;;13.20;64.00;;;;;;4871110;29;20483;-83
2023/05/12 04:36:00;;;;;;;23.47;22.07;;;13.20;99.90;;;;;;4865136;29;20582;-81
2023/05/12 04:38:29;;;;;;;24.77;23.30;;;13.20;99.90;;;;;;4877180;29;22461;-83
2023/05/12 04:40:58;;;;;;;24.17;22.70;;;13.30;34.00;;;;;;4876263;29;20800;-82
2023/05/12 04:43:27;;;;;;;24.80;23.37;;;13.30;31.40;;;;;;4872066;29;21087;-82
2023/05/12 04:45:58;;;;;;;23.27;22.03;;;13.30;99.90;;;;;;4865748;29;21054;-80
2023/05/12 04:48:27;;;;;;;25.00;23.40;;;13.30;99.90;;;;;;4875126;29;20967;-82
2023/05/12 04:50:55;;;;;;;25.00;23.40;;;13.40;1.00;;;;;;4866197;29;20485;-82
2023/05/12 04:53:23;;;;;;;24.13;22.73;;;13.40;1.00;;;;;;4863455;29;22229;-82
2023/05/12 04:55:55;;;;;;;24.83;23.33;;;13.40;99.90;;;;;;4870638;29;20466;-81
2023/05/12 04:58:23;;;;;;;26.50;24.70;;;13.40;99.90;;;;;;4867218;29;20462;-79
2023/05/12 05:00:51;;;;;;;24.20;22.60;;;13.40;1.00;;;;;;4864720;29;20538;-78
2023/05/12 05:03:20;;;;;;;24.97;23.47;;;13.40;99.90;;;;;;4869225;29;20475;-80
2023/05/12 05:05:48;;;;;;;23.47;22.07;;;13.40;99.90;;;;;;4868141;29;20470;-80
2023/05/12 05:08:17;;;;;;;23.10;21.70;;;13.40;99.90;;;;;;4869809;29;20471;-82
2023/05/12 05:10:45;;;;;;;24.20;22.80;;;13.40;99.90;;;;;;4868579;29;20496;-82
2023/05/12 05:13:15;;;;;;;24.03;22.63;;;13.40;1.00;;;;;;4872396;29;20481;-81
2023/05/12 05:15:50;;;;;;;24.60;23.10;;;13.40;1.00;;;;;;4867559;29;20457;-81
2023/05/12 05:18:19;;;;;;;24.17;22.88;;;13.50;99.90;;;;;;4870154;29;21106;-81
2023/05/12 05:20:50;;;;;;;24.10;22.70;;;13.40;99.90;;;;;;4868422;29;20587;-81
2023/05/12 05:23:25;;;;;;;23.60;21.97;;;13.50;1.00;;;;;;4869999;29;20494;-81
2023/05/12 05:25:53;;;;;;;23.90;22.40;;;13.50;99.90;;;;;;4878128;29;20899;-82
2023/05/12 05:28:23;;;;;;;24.20;22.90;;;13.50;99.90;;;;;;4879775;29;20460;-82
2023/05/12 05:30:51;;;;;;;22.77;21.57;;;13.40;99.90;;;;;;4879242;29;20230;-83
2023/05/12 05:33:20;;;;;;;23.20;21.90;;;13.50;1.00;;;;;;4877692;29;20597;-81
2023/05/12 05:35:48;;;;;;;22.10;21.00;;;13.50;99.90;;;;;;4871982;29;20485;-83
2023/05/12 05:38:16;;;;;;;21.80;20.80;;;13.50;99.90;;;;;;4876201;29;20759;-83
2023/05/12 05:40:44;;;;;;;21.67;20.57;;;13.60;99.90;;;;;;4876105;29;20525;-82
2023/05/12 05:43:23;;;;;;;22.63;21.43;;;13.60;37.50;;;;;;4874818;29;20474;-82
2023/05/12 05:45:51;;;;;;;22.03;20.93;;;13.60;99.90;;;;;;4879303;29;21028;-83
2023/05/12 05:48:19;;;;;;;21.83;20.77;;;13.60;64.40;;;;;;4876154;29;20461;-83
2023/05/12 05:50:48;;;;;;;21.33;20.30;;;13.60;1.00;;;;;;4878628;29;20573;-83
2023/05/12 05:53:17;;;;;;;20.90;19.90;;;13.70;99.90;;;;;;4878694;29;20806;-81
2023/05/12 05:55:45;;;;;;;21.47;20.07;;;13.70;99.90;;;;;;4881599;29;20473;-84
2023/05/12 05:58:14;;;;;;;21.97;20.77;;;13.60;1.00;;;;;;4873575;29;20467;-82
2023/05/12 06:00:43;;;;;;;21.47;20.47;;;13.60;1.00;;;;;;4876388;29;20469;-82
2023/05/12 06:03:12;;;;;;;21.70;20.60;;;13.60;99.90;;;;;;4870583;29;20490;-83
2023/05/12 06:05:41;;;;;;;20.87;19.77;;;13.60;99.90;;;;;;4876173;29;20553;-82
2023/05/12 06:08:12;;;;;;;21.27;20.07;;;13.60;1.00;;;;;;4875452;29;20462;-81
2023/05/12 06:10:40;;;;;;;21.73;20.53;;;13.60;1.00;;;;;;4878440;29;20735;-82
2023/05/12 06:13:09;;;;;;;20.13;19.23;;;13.60;1.00;;;;;;4871020;29;20459;-82
2023/05/12 06:15:37;;;;;;;20.90;19.90;;;13.70;1.00;;;;;;4882494;29;20473;-82
2023/05/12 06:18:06;;;;;;;21.80;20.70;;;13.70;1.00;;;;;;4875809;29;20572;-82
2023/05/12 06:20:35;;;;;;;20.37;19.47;;;13.80;99.90;;;;;;4882178;29;20748;-83
2023/05/12 06:23:04;;;;;;;20.10;19.20;;;13.80;1.00;;;;;;4880559;29;20996;-82
2023/05/12 06:25:33;;;;;;;19.07;18.27;;;13.90;99.90;;;;;;4878149;29;20460;-83
2023/05/12 06:28:01;;;;;;;20.97;20.07;;;13.90;99.90;;;;;;4879982;29;20466;-81
2023/05/12 06:30:29;;;;;;;20.07;19.20;;;13.90;99.90;;;;;;4877474;29;20927;-83
2023/05/12 06:32:58;;;;;;;19.97;19.10;;;13.90;1.00;;;;;;4879229;29;20479;-82
2023/05/12 06:35:28;;;;;;;19.63;18.83;;;13.90;1.00;;;;;;4872476;29;20467;-79
2023/05/12 06:37:56;;;;;;;19.53;18.60;;;14.00;1.00;;;;;;4874186;29;20466;-78
2023/05/12 06:40:24;;;;;;;19.47;18.67;;;14.00;1.00;;;;;;4880335;29;20482;-79
2023/05/12 06:42:52;;;;;;;19.37;18.57;;;14.00;1.00;;;;;;4880344;29;20460;-77
2023/05/12 06:45:22;;;;;;;19.40;18.50;;;14.10;1.00;;;;;;4876719;29;20968;-80
2023/05/12 06:47:50;;;;;;;18.63;17.93;;;14.10;1.00;;;;;;4878138;29;20533;-80
2023/05/12 06:50:19;;;;;;;19.47;18.57;;;14.10;99.90;;;;;;4878979;29;20803;-79
2023/05/12 06:52:49;;;;;;;18.80;18.10;;;14.10;99.90;;;;;;4878737;29;20511;-80
2023/05/12 06:55:19;;;;;;;18.90;18.10;;;14.00;99.90;;;;;;4876953;29;20459;-82
2023/05/12 06:57:50;;;;;;;18.77;18.10;;;14.10;99.90;;;;;;4875839;29;20474;-79
2023/05/12 07:00:19;;;;;;;18.93;18.13;;;14.20;99.90;;;;;;4866100;29;20465;-82
2023/05/12 07:02:48;;;;;;;19.27;18.47;;;14.20;99.90;;;;;;4869844;29;20860;-82
2023/05/12 07:05:17;;;;;;;19.20;18.33;;;14.20;99.90;;;;;;4883753;29;20525;-81
2023/05/12 07:07:46;;;;;;;18.13;17.53;;;14.30;99.90;;;;;;4863160;29;20475;-80
2023/05/12 07:10:15;;;;;;;18.33;17.70;;;14.30;99.90;;;;;;4878702;29;20463;-82
2023/05/12 07:12:44;;;;;;;18.00;17.40;;;14.40;99.90;;;;;;4877968;29;20464;-83
2023/05/12 07:15:12;;;;;;;18.90;18.20;;;14.40;99.90;;;;;;4876689;29;20518;-84
2023/05/12 07:17:41;;;;;;;18.67;17.97;;;14.40;99.90;;;;;;4878447;29;20467;-83
2023/05/12 07:20:09;;;;;;;18.90;18.10;;;14.50;8.70;;;;;;4874420;29;20475;-82
2023/05/12 07:22:37;;;;;;;19.17;18.37;;;14.50;1.00;;;;;;4879458;29;20534;-82
2023/05/12 07:25:07;;;;;;;17.70;17.00;;;14.50;99.90;;;;;;4875166;29;20926;-82
2023/05/12 07:27:37;;;;;;;18.60;18.00;;;14.50;99.90;;;;;;4883013;29;20467;-82
2023/05/12 07:30:06;;;;;;;17.97;17.33;;;14.40;99.90;;;;;;4878890;29;20676;-82
2023/05/12 07:32:35;;;;;;;18.93;18.20;;;14.50;99.90;;;;;;4877009;29;20491;-82
2023/05/12 07:35:04;;;;;;;18.90;18.20;;;14.50;99.90;;;;;;4878014;29;20499;-82
2023/05/12 07:37:32;;;;;;;18.63;17.93;;;14.50;1.00;;;;;;4881319;29;20980;-83
2023/05/12 07:40:00;;;;;;;19.20;18.50;;;14.60;1.00;;;;;;4877931;29;21336;-82
2023/05/12 07:42:28;;;;;;;18.70;18.00;;;14.60;1.00;;;;;;4882232;29;21158;-82
2023/05/12 07:44:58;;;;;;;18.27;17.67;;;14.60;1.00;;;;;;4878448;29;20483;-83
2023/05/12 07:47:27;;;;;;;18.67;17.87;;;14.70;99.90;;;;;;4879172;29;20466;-82
2023/05/12 07:49:59;;;;;;;31.13;25.90;;;14.70;1.00;;;;;;4878101;29;20909;-82
2023/05/12 07:52:27;;;;;;;21.87;20.27;;;14.80;1.00;;;;;;4879881;29;20929;-82
2023/05/12 07:54:57;;;;;;;18.67;17.93;;;14.70;1.00;;;;;;4881032;29;20519;-82
2023/05/12 07:57:25;;;;;;;18.50;17.70;;;14.80;99.90;;;;;;4864134;29;20460;-84
2023/05/12 07:59:53;;;;;;;18.10;17.50;;;14.70;99.90;;;;;;4875311;29;21030;-83
2023/05/12 08:02:22;;;;;;;18.57;17.80;;;14.80;99.90;;;;;;4876756;29;20459;-83
2023/05/12 08:04:51;;;;;;;17.90;17.30;;;14.80;1.00;;;;;;4870507;29;20880;-82
2023/05/12 08:07:19;;;;;;;18.20;17.50;;;14.80;1.00;;;;;;4877503;29;21013;-84
2023/05/12 08:09:47;;;;;;;18.53;17.53;;;14.70;50.60;;;;;;4876575;29;20985;-79
2023/05/12 08:12:15;;;;;;;18.50;17.60;;;14.80;99.90;;;;;;4877719;29;20487;-83
2023/05/12 08:14:43;;;;;;;18.13;17.53;;;14.90;99.90;;;;;;4874959;29;20494;-83
2023/05/12 08:17:12;;;;;;;18.30;17.57;;;15.10;99.40;;;;;;4880299;29;20468;-82
2023/05/12 08:19:42;;;;;;;19.40;18.60;;;15.30;99.90;;;;;;4879257;29;20574;-83
2023/05/12 08:22:10;;;;;;;18.50;17.90;;;15.40;1.00;;;;;;4876886;29;21072;-81
2023/05/12 08:24:39;;;;;;;18.00;17.40;;;15.50;24.60;;;;;;4873131;29;20593;-81
2023/05/12 08:27:07;;;;;;;18.53;17.53;;;15.50;1.00;;;;;;4874029;29;20475;-82
2023/05/12 08:29:35;;;;;;;17.37;16.87;;;15.50;99.90;;;;;;4878349;29;20477;-85
2023/05/12 08:32:04;;;;;;;17.77;17.17;;;15.40;99.90;;;;;;4876800;29;20497;-82
2023/05/12 08:34:32;;;;;;;17.50;16.90;;;15.40;99.90;;;;;;4878878;29;21090;-83
2023/05/12 08:37:02;;;;;;;17.40;16.83;;;15.30;99.90;;;;;;4872390;29;20533;-82
2023/05/12 08:39:30;;;;;;;17.33;16.63;;;15.20;99.90;;;;;;4876376;29;21036;-82
2023/05/12 08:42:09;;;;;;;18.27;17.57;;;15.20;99.90;;;;;;4880740;29;20474;-82
2023/05/12 08:44:38;;;;;;;17.57;16.97;;;15.20;99.90;;;;;;4877436;29;20483;-83
2023/05/12 08:47:07;;;;;;;17.00;16.40;;;15.20;99.90;;;;;;4876141;29;20473;-84
2023/05/12 08:49:37;;;;;;;17.03;16.53;;;15.30;99.90;;;;;;4876515;29;20463;-83
2023/05/12 08:52:09;;;;;;;17.33;16.83;;;15.30;99.90;;;;;;4881427;29;20484;-83
2023/05/12 08:54:39;;;;;;;17.13;16.63;;;15.40;99.90;;;;;;4879908;29;20590;-84
2023/05/12 08:57:20;;;;;;;17.47;16.97;;;15.40;99.90;;;;;;4878148;29;20463;-84
2023/05/12 08:59:49;;;;;;;17.03;16.53;;;15.40;99.90;;;;;;4877362;29;21002;-83
2023/05/12 09:02:21;;;;;;;17.73;17.17;;;15.30;45.80;;;;;;4879172;29;20965;-82
2023/05/12 09:04:50;;;;;;;17.13;16.63;;;15.20;14.90;;;;;;4881018;29;20483;-83
2023/05/12 09:07:21;;;;;;;17.30;16.70;;;15.20;1.00;;;;;;4880876;29;20492;-83
2023/05/12 09:09:54;;;;;;;16.80;16.30;;;15.20;91.00;;;;;;4875236;29;20468;-83
2023/05/12 09:12:24;;;;;;;17.03;16.50;;;15.20;99.90;;;;;;4878434;29;20483;-83
2023/05/12 09:15:06;;;;;;;17.43;16.83;;;15.20;44.50;;;;;;4882678;29;20562;-83
2023/05/12 09:17:35;;;;;;;17.47;16.77;;;15.20;93.80;;;;;;4884641;29;20463;-81
2023/05/12 09:20:05;;;;;;;16.80;16.23;;;15.20;57.20;;;;;;4887292;29;20491;-83
2023/05/12 09:22:36;;;;;;;17.70;17.20;;;15.20;1.00;;;;;;4887961;29;20494;-85
2023/05/12 09:25:17;;;;;;;17.23;16.63;;;15.10;1.00;;;;;;4884921;29;20578;-83
2023/05/12 09:27:48;;;;;;;17.03;16.53;;;15.10;26.70;;;;;;4881607;29;20499;-83
2023/05/12 09:30:16;;;;;;;17.10;16.60;;;15.10;9.60;;;;;;4882019;29;20459;-85
2023/05/12 09:32:45;;;;;;;16.93;16.33;;;15.00;1.00;;;;;;4877163;29;21021;-83
2023/05/12 09:35:13;;;;;;;16.33;15.83;;;15.10;1.00;;;;;;4884193;29;20483;-83
2023/05/12 09:37:43;;;;;;;17.37;16.87;;;15.20;4.50;;;;;;4887293;29;20475;-82
2023/05/12 09:40:12;;;;;;;17.50;16.90;;;15.30;19.50;;;;;;4881861;29;21083;-83
2023/05/12 09:42:43;;;;;;;17.40;16.90;;;15.40;1.00;;;;;;4884954;29;20970;-82
2023/05/12 09:45:14;;;;;;;17.77;17.17;;;15.40;1.00;;;;;;4885989;29;20880;-84
2023/05/12 09:47:44;;;;;;;17.27;16.77;;;15.30;1.00;;;;;;4887380;29;20523;-84
2023/05/12 09:50:12;;;;;;;17.80;17.20;;;15.30;33.90;;;;;;4885670;29;20466;-85
2023/05/12 09:52:42;;;;;;;17.80;17.20;;;15.40;91.60;;;;;;4869175;29;20538;-84
2023/05/12 09:55:12;;;;;;;17.23;16.73;;;15.30;43.30;;;;;;4885458;29;20491;-84
2023/05/12 09:57:42;;;;;;;17.13;16.43;;;15.30;19.90;;;;;;4884226;29;20476;-82
2023/05/12 10:00:15;;;;;;;18.00;17.40;;;15.40;1.00;;;;;;4881683;29;20467;-83
2023/05/12 10:03:10;;;;;;;16.93;16.43;;;15.40;1.00;;;;;;4886796;29;20473;-82
2023/05/12 10:05:44;;;;;;;18.10;17.40;;;15.50;24.80;;;;;;4886477;29;20464;-83
2023/05/12 10:08:17;;;;;;;17.47;16.87;;;15.60;1.00;;;;;;4886085;29;20983;-83
2023/05/12 10:10:49;;;;;;;17.20;16.70;;;15.70;1.00;;;;;;4887251;29;20463;-83
2023/05/12 10:13:17;;;;;;;16.80;16.30;;;15.80;1.00;;;;;;4886039;29;20872;-83
2023/05/12 10:15:48;;;;;;;16.80;16.40;;;15.80;1.00;;;;;;4887697;29;20464;-84
2023/05/12 10:18:17;;;;;;;16.50;16.00;;;15.80;1.00;;;;;;4886150;29;20828;-84
2023/05/12 10:20:45;;;;;;;16.90;16.40;;;15.80;1.00;;;;;;4880353;29;20547;-82
2023/05/12 10:23:18;;;;;;;17.17;16.67;;;15.90;1.00;;;;;;4883548;29;20464;-83
2023/05/12 10:25:47;;;;;;;16.30;15.90;;;15.90;1.00;;;;;;4883642;29;20970;-84
2023/05/12 10:28:15;;;;;;;16.83;16.33;;;16.00;1.00;;;;;;4884847;29;20473;-85
2023/05/12 10:30:44;;;;;;;17.50;16.80;;;16.10;1.00;;;;;;4886387;29;20478;-83
2023/05/12 10:33:14;;;;;;;16.67;16.17;;;16.10;1.00;;;;;;4884802;29;20510;-84
2023/05/12 10:35:44;;;;;;;17.10;16.60;;;16.20;1.00;;;;;;4879771;29;20466;-84
2023/05/12 10:38:18;;;;;;;16.97;16.47;;;16.20;1.00;;;;;;4881849;29;20466;-83
2023/05/12 10:40:54;;;;;;;17.33;16.83;;;16.30;1.00;;;;;;4885307;29;20471;-83
2023/05/12 10:43:23;;;;;;;17.30;16.80;;;16.30;1.00;;;;;;4885708;29;20559;-83
2023/05/12 10:46:16;;;;;;;17.27;16.77;;;16.30;1.00;;;;;;4884582;29;20522;-83
2023/05/12 10:48:53;;;;;;;17.30;16.70;;;16.20;1.00;;;;;;4881042;29;20463;-83
2023/05/12 10:51:23;;;;;;;16.63;16.20;;;16.10;1.00;;;;;;4887643;29;20520;-84
2023/05/12 10:53:56;;;;;;;17.00;16.43;;;16.10;1.00;;;;;;4887249;29;21025;-83
2023/05/12 10:56:26;;;;;;;16.60;16.10;;;16.20;1.00;;;;;;4883683;29;20504;-84
2023/05/12 10:59:12;;;;;;;16.30;15.90;;;16.20;1.00;;;;;;4883536;29;20476;-85
2023/05/12 11:01:43;;;;;;;17.13;16.40;;;16.30;1.00;;;;;;4886325;29;20464;-82
2023/05/12 11:04:13;;;;;;;16.20;15.70;;;16.30;1.00;;;;;;4884238;29;20560;-78
2023/05/12 11:06:43;;;;;;;16.33;15.90;;;16.30;1.00;;;;;;4884848;29;20456;-82
2023/05/12 11:09:16;;;;;;;16.10;15.70;;;16.40;1.00;;;;;;4880535;29;20468;-80
2023/05/12 11:11:45;;;;;;;17.03;16.53;;;16.40;1.00;;;;;;4883043;29;20532;-81
2023/05/12 11:14:15;;;;;;;16.80;16.30;;;16.30;1.00;;;;;;4881827;29;20962;-79
2023/05/12 11:16:43;;;;;;;17.33;16.73;;;16.30;1.00;;;;;;4881466;29;20502;-79
2023/05/12 11:19:12;;;;;;;17.20;16.60;;;16.20;1.00;;;;;;4883708;29;20463;-79
2023/05/12 11:21:41;;;;;;;17.60;17.00;;;16.20;1.00;;;;;;4881548;29;20473;-85
2023/05/12 11:24:10;;;;;;;17.50;16.80;;;16.20;1.00;;;;;;4883765;29;20495;-83
2023/05/12 11:26:43;;;;;;;16.90;16.30;;;16.20;1.00;;;;;;4886154;29;20473;-82
2023/05/12 11:29:11;;;;;;;16.90;16.37;;;16.20;1.00;;;;;;4885860;29;20966;-83
2023/05/12 11:31:40;;;;;;;17.57;17.07;;;16.30;1.00;;;;;;4884242;29;20469;-81
2023/05/12 11:34:09;;;;;;;17.10;16.60;;;16.30;1.00;;;;;;4885727;29;20522;-81
2023/05/12 11:36:42;;;;;;;17.40;16.87;;;16.30;1.00;;;;;;4875908;29;20544;-83
2023/05/12 11:39:15;;;;;;;16.70;16.10;;;16.30;1.00;;;;;;4877976;29;20461;-84
2023/05/12 11:41:45;;;;;;;16.53;16.00;;;16.30;1.00;;;;;;4883686;29;20468;-84
2023/05/12 11:44:15;;;;;;;17.07;16.57;;;16.30;1.00;;;;;;4886056;29;20480;-84
2023/05/12 11:46:54;;;;;;;17.37;16.83;;;16.30;1.00;;;;;;4883901;29;20532;-82
2023/05/12 11:49:23;;;;;;;17.80;17.20;;;16.30;1.00;;;;;;4884232;29;20815;-83
2023/05/12 11:51:52;;;;;;;17.70;17.20;;;16.30;1.00;;;;;;4881770;29;20944;-83
2023/05/12 11:54:22;;;;;;;17.30;16.80;;;16.40;1.00;;;;;;4880094;29;20502;-83
2023/05/12 11:56:52;;;;;;;17.83;17.23;;;16.40;1.00;;;;;;4882025;29;20469;-83
2023/05/12 11:59:31;;;;;;;18.10;17.40;;;16.40;1.00;;;;;;4885123;29;20712;-84
2023/05/12 12:02:02;;;;;;;18.10;17.50;;;16.40;1.00;;;;;;4883476;29;20470;-83
2023/05/12 12:04:32;;;;;;;17.40;16.90;;;16.50;1.00;;;;;;4882976;29;21080;-83
2023/05/12 12:07:01;;;;;;;17.40;16.90;;;16.50;1.00;;;;;;4884894;29;20471;-81
2023/05/12 12:09:35;;;;;;;18.03;17.33;;;16.60;1.00;;;;;;4882855;29;20464;-83
2023/05/12 12:12:06;;;;;;;18.00;17.30;;;16.60;58.70;;;;;;4887838;29;21033;-84
2023/05/12 12:14:36;;;;;;;18.50;17.90;;;16.50;99.90;;;;;;4882604;29;20561;-83
2023/05/12 12:17:05;;;;;;;18.40;17.70;;;16.40;99.90;;;;;;4881741;29;20473;-83
2023/05/12 12:19:33;;;;;;;18.03;17.40;;;16.40;1.00;;;;;;4878822;29;20821;-83
2023/05/12 12:22:01;;;;;;;18.40;17.80;;;16.30;1.00;;;;;;4882788;29;20484;-82
2023/05/12 12:24:29;;;;;;;18.20;17.60;;;16.30;1.00;;;;;;4883537;29;20495;-83
2023/05/12 12:26:58;;;;;;;17.73;17.17;;;16.30;25.10;;;;;;4883682;29;21038;-83
2023/05/12 12:29:27;;;;;;;17.40;16.80;;;16.20;1.00;;;;;;4885101;29;20484;-84
2023/05/12 12:31:56;;;;;;;18.40;17.57;;;16.30;1.00;;;;;;4885063;29;20840;-83
2023/05/12 12:34:24;;;;;;;17.20;16.70;;;16.30;44.30;;;;;;4882661;29;20515;-85
2023/05/12 12:36:52;;;;;;;17.50;16.80;;;16.30;99.90;;;;;;4878478;29;20600;-83
2023/05/12 12:39:22;;;;;;;17.60;16.90;;;16.40;99.90;;;;;;4879210;29;20463;-84
2023/05/12 12:41:50;;;;;;;16.90;16.40;;;16.40;99.90;;;;;;4884420;29;20452;-83